createdAt,value
2022-12-31T00:02:01.797Z,4.00
2022-12-31T00:04:28.648Z,4.00
2022-12-31T00:06:55.407Z,4.00
2022-12-31T00:09:22.258Z,3.90
2022-12-31T00:11:49.046Z,3.90
2022-12-31T00:14:15.849Z,3.90
2022-12-31T00:16:43.297Z,3.80
2022-12-31T00:19:11.792Z,3.80
2022-12-31T00:21:38.826Z,3.70
2022-12-31T00:24:06.854Z,3.70
2022-12-31T00:26:34.998Z,3.70
2022-12-31T00:29:02.617Z,3.70
2022-12-31T00:31:37.909Z,3.70
2022-12-31T00:34:05.099Z,3.70
2022-12-31T00:36:34.795Z,3.70
2022-12-31T00:39:04.112Z,3.60
2022-12-31T00:41:31.330Z,3.60
2022-12-31T00:43:58.609Z,3.60
2022-12-31T00:46:25.795Z,3.50
2022-12-31T00:48:52.635Z,3.60
2022-12-31T00:51:22.380Z,3.60
2022-12-31T00:53:49.811Z,3.50
2022-12-31T00:56:20.054Z,3.50
2022-12-31T00:58:47.414Z,3.50
2022-12-31T01:01:26.198Z,3.50
2022-12-31T01:03:56.227Z,3.50
2022-12-31T01:06:23.268Z,3.50
2022-12-31T01:08:51.335Z,3.50
2022-12-31T01:11:19.042Z,3.50
2022-12-31T01:14:01.598Z,3.40
2022-12-31T01:16:34.909Z,3.40
2022-12-31T01:19:05.076Z,3.30
2022-12-31T01:21:32.799Z,3.20
2022-12-31T01:24:00.287Z,3.20
2022-12-31T01:26:28.307Z,3.20
2022-12-31T01:28:55.098Z,3.10
2022-12-31T01:31:23.371Z,3.20
2022-12-31T01:33:50.873Z,3.20
2022-12-31T01:36:25.640Z,3.20
2022-12-31T01:38:56.109Z,3.10
2022-12-31T01:41:30.153Z,3.10
2022-12-31T01:43:59.597Z,3.10
2022-12-31T01:46:42.540Z,3.10
2022-12-31T01:49:43.478Z,3.20
2022-12-31T01:52:13.007Z,3.30
2022-12-31T01:54:49.167Z,3.30
2022-12-31T01:57:16.973Z,3.30
2022-12-31T01:59:45.464Z,3.20
2022-12-31T02:02:14.504Z,3.20
2022-12-31T02:04:41.542Z,3.20
2022-12-31T02:07:10.142Z,3.10
2022-12-31T02:09:39.490Z,3.00
2022-12-31T02:12:08.270Z,3.00
2022-12-31T02:14:39.526Z,2.90
2022-12-31T02:17:25.042Z,2.80
2022-12-31T02:20:13.318Z,2.90
2022-12-31T02:23:02.000Z,2.80
2022-12-31T02:25:38.827Z,2.80
2022-12-31T02:28:23.284Z,2.90
2022-12-31T02:30:57.401Z,2.80
2022-12-31T02:33:38.897Z,2.70
2022-12-31T02:36:21.759Z,2.70
2022-12-31T02:38:49.664Z,2.70
2022-12-31T02:41:37.698Z,2.70
2022-12-31T02:44:32.264Z,2.80
2022-12-31T02:47:08.241Z,2.80
2022-12-31T02:49:43.832Z,2.90
2022-12-31T02:52:35.067Z,2.90
2022-12-31T02:55:18.929Z,2.90
2022-12-31T02:58:00.579Z,2.90
2022-12-31T03:00:48.910Z,2.90
2022-12-31T03:03:16.390Z,2.90
2022-12-31T03:08:57.034Z,2.80
2022-12-31T03:11:42.275Z,2.80
2022-12-31T03:14:09.097Z,2.90
2022-12-31T03:16:35.906Z,2.90
2022-12-31T03:19:21.121Z,2.80
2022-12-31T03:22:06.679Z,2.70
2022-12-31T03:24:52.276Z,2.70
2022-12-31T03:27:19.031Z,2.70
2022-12-31T03:29:45.748Z,2.70
2022-12-31T03:32:12.529Z,2.70
2022-12-31T03:34:39.241Z,2.70
2022-12-31T03:37:05.964Z,2.70
2022-12-31T03:39:32.758Z,2.70
2022-12-31T03:41:59.448Z,2.60
2022-12-31T03:44:26.195Z,2.60
2022-12-31T03:46:52.960Z,2.70
2022-12-31T03:49:19.695Z,2.70
2022-12-31T03:51:46.428Z,2.70
2022-12-31T03:54:13.197Z,2.70
2022-12-31T03:56:39.947Z,2.70
2022-12-31T03:59:06.671Z,2.70
2022-12-31T04:01:33.550Z,2.80
2022-12-31T04:04:00.440Z,2.70
2022-12-31T04:06:27.451Z,2.70
2022-12-31T04:08:54.234Z,2.60
2022-12-31T04:11:21.310Z,2.60
2022-12-31T04:13:48.094Z,2.60
2022-12-31T04:16:14.955Z,2.70
2022-12-31T04:18:41.751Z,2.70
2022-12-31T04:21:08.521Z,2.60
2022-12-31T04:23:35.339Z,2.50
2022-12-31T04:26:02.149Z,2.50
2022-12-31T04:28:28.856Z,2.40
2022-12-31T04:30:55.631Z,2.30
2022-12-31T04:33:22.375Z,2.30
2022-12-31T04:35:49.085Z,2.30
2022-12-31T04:38:15.872Z,2.40
2022-12-31T04:41:03.071Z,2.30
2022-12-31T04:43:29.971Z,2.20
2022-12-31T04:45:56.804Z,2.20
2022-12-31T04:48:23.521Z,2.10
2022-12-31T04:50:50.362Z,2.10
2022-12-31T04:53:17.094Z,2.00
2022-12-31T04:55:45.386Z,2.10
2022-12-31T04:58:12.198Z,2.00
2022-12-31T05:00:38.970Z,2.00
2022-12-31T05:03:05.767Z,2.00
2022-12-31T05:05:32.579Z,1.90
2022-12-31T05:07:59.498Z,1.90
2022-12-31T05:10:26.314Z,1.90
2022-12-31T05:12:53.117Z,1.80
2022-12-31T05:15:19.823Z,1.90
2022-12-31T05:17:46.553Z,1.90
2022-12-31T05:20:13.355Z,1.90
2022-12-31T05:22:40.058Z,1.90
2022-12-31T05:25:07.257Z,1.90
2022-12-31T05:27:34.242Z,2.00
2022-12-31T05:30:01.075Z,2.10
2022-12-31T05:32:28.012Z,2.10
2022-12-31T05:34:54.792Z,2.10
2022-12-31T05:37:21.592Z,2.10
2022-12-31T05:39:48.337Z,2.10
2022-12-31T05:42:15.114Z,2.00
2022-12-31T05:44:41.893Z,2.10
2022-12-31T05:47:08.724Z,2.10
2022-12-31T05:49:35.575Z,2.10
2022-12-31T05:52:02.309Z,2.10
2022-12-31T05:54:29.025Z,2.10
2022-12-31T05:56:55.916Z,2.00
2022-12-31T05:59:22.652Z,2.00
2022-12-31T06:01:49.366Z,2.10
2022-12-31T06:04:16.153Z,2.20
2022-12-31T06:06:43.195Z,2.20
2022-12-31T06:09:10.084Z,2.20
2022-12-31T06:11:36.854Z,2.30
2022-12-31T06:14:03.685Z,2.20
2022-12-31T06:16:30.411Z,2.20
2022-12-31T06:18:57.300Z,2.10
2022-12-31T06:21:24.044Z,2.20
2022-12-31T06:23:50.805Z,2.20
2022-12-31T06:26:17.697Z,2.30
2022-12-31T06:28:44.445Z,2.30
2022-12-31T06:31:13.651Z,2.30
2022-12-31T06:33:41.318Z,2.20
2022-12-31T06:36:11.827Z,2.30
2022-12-31T06:38:40.784Z,2.30
2022-12-31T06:41:10.228Z,2.40
2022-12-31T06:43:38.655Z,2.40
2022-12-31T06:46:08.049Z,2.50
2022-12-31T06:48:35.580Z,2.50
2022-12-31T06:51:07.800Z,2.60
2022-12-31T06:53:37.472Z,2.70
2022-12-31T06:56:34.304Z,2.80
2022-12-31T06:59:02.403Z,2.80
2022-12-31T07:01:47.839Z,2.70
2022-12-31T07:04:17.696Z,2.80
2022-12-31T07:06:52.597Z,2.90
2022-12-31T07:09:38.804Z,2.90
2022-12-31T07:12:11.445Z,3.00
2022-12-31T07:14:49.388Z,3.00
2022-12-31T07:17:27.973Z,3.10
2022-12-31T07:20:19.034Z,3.10
2022-12-31T07:22:46.492Z,3.40
2022-12-31T07:25:15.376Z,3.50
2022-12-31T07:28:15.611Z,3.70
2022-12-31T07:30:51.182Z,3.90
2022-12-31T07:33:45.188Z,4.10
2022-12-31T07:36:42.909Z,4.30
2022-12-31T07:39:14.665Z,4.70
2022-12-31T07:41:44.136Z,4.90
2022-12-31T07:44:36.788Z,5.20
2022-12-31T07:47:05.795Z,5.40
2022-12-31T07:49:34.129Z,5.70
2022-12-31T07:52:01.111Z,5.90
2022-12-31T07:54:28.007Z,6.20
2022-12-31T07:56:54.845Z,6.30
2022-12-31T07:59:39.687Z,6.60
2022-12-31T08:02:24.814Z,6.80
2022-12-31T08:04:59.966Z,6.80
2022-12-31T08:07:52.521Z,6.90
2022-12-31T08:10:48.400Z,7.20
2022-12-31T08:13:16.745Z,7.50
2022-12-31T08:15:43.793Z,7.90
2022-12-31T08:18:11.119Z,8.20
2022-12-31T08:20:57.874Z,8.60
2022-12-31T08:23:42.714Z,8.80
2022-12-31T08:26:18.358Z,8.80
2022-12-31T08:29:17.472Z,8.80
2022-12-31T08:32:03.600Z,8.90
2022-12-31T08:35:05.006Z,8.90
2022-12-31T08:37:42.916Z,8.80
2022-12-31T08:40:28.149Z,8.60
2022-12-31T08:43:35.157Z,8.30
2022-12-31T08:46:04.630Z,7.90
2022-12-31T08:48:39.475Z,7.80
2022-12-31T08:51:09.759Z,7.60
2022-12-31T08:53:36.721Z,7.60
2022-12-31T08:56:12.916Z,7.70
2022-12-31T08:58:42.804Z,7.90
2022-12-31T09:01:11.296Z,8.00
2022-12-31T09:04:06.114Z,7.90
2022-12-31T09:06:48.371Z,7.70
2022-12-31T09:09:33.047Z,7.50
2022-12-31T09:12:28.201Z,7.50
2022-12-31T09:14:58.437Z,7.10
2022-12-31T09:17:46.283Z,7.00
2022-12-31T09:20:36.356Z,6.80
2022-12-31T09:23:08.984Z,6.90
2022-12-31T09:25:56.362Z,7.00
2022-12-31T09:28:36.814Z,6.90
2022-12-31T09:31:16.599Z,7.10
2022-12-31T09:34:28.741Z,7.30
2022-12-31T09:37:05.408Z,7.30
2022-12-31T09:39:43.893Z,7.40
2022-12-31T09:42:35.103Z,7.50
2022-12-31T09:45:26.312Z,7.50
2022-12-31T09:47:55.988Z,7.60
2022-12-31T09:50:31.595Z,7.60
2022-12-31T09:53:10.573Z,7.50
2022-12-31T09:55:49.139Z,7.60
2022-12-31T09:58:40.773Z,7.50
2022-12-31T10:01:13.619Z,7.50
2022-12-31T10:04:00.986Z,7.70
2022-12-31T10:06:44.450Z,7.60
2022-12-31T10:09:26.522Z,7.70
2022-12-31T10:12:27.469Z,7.90
2022-12-31T10:15:35.552Z,7.80
2022-12-31T10:18:19.055Z,7.80
2022-12-31T10:21:01.762Z,7.90
2022-12-31T15:28:06.519Z,6.00
2022-12-31T15:33:16.700Z,6.20
2022-12-31T15:35:54.928Z,6.20
2022-12-31T15:38:30.922Z,6.10
2022-12-31T15:40:57.977Z,6.10
2022-12-31T15:43:24.912Z,6.30
2022-12-31T15:45:54.309Z,6.30
2022-12-31T15:48:39.869Z,6.30
2022-12-31T15:51:17.444Z,6.30
2022-12-31T15:53:52.557Z,6.30
2022-12-31T15:56:35.479Z,6.30
2022-12-31T15:59:06.438Z,6.40
2022-12-31T16:01:36.361Z,6.40
2022-12-31T16:04:06.758Z,6.40
2022-12-31T16:06:37.604Z,6.50
2022-12-31T16:09:08.475Z,6.40
2022-12-31T16:11:41.782Z,6.40
2022-12-31T16:14:20.230Z,6.50
2022-12-31T16:16:59.514Z,6.50
2022-12-31T16:19:43.739Z,6.40
2022-12-31T16:22:24.414Z,6.40
2022-12-31T16:27:53.028Z,6.50
2022-12-31T16:30:32.239Z,6.50
2022-12-31T16:33:05.059Z,6.50
2022-12-31T16:35:34.679Z,6.50
2022-12-31T16:38:19.877Z,6.50
2022-12-31T16:41:01.982Z,6.50
2022-12-31T16:43:35.652Z,6.50
2022-12-31T16:46:27.438Z,6.50
2022-12-31T16:49:19.643Z,6.50
2022-12-31T16:51:47.284Z,6.50
2022-12-31T16:54:26.148Z,6.50
2022-12-31T16:56:53.009Z,6.50
2022-12-31T16:59:35.141Z,6.50
2022-12-31T17:02:07.448Z,6.50
2022-12-31T17:04:34.596Z,6.50
2022-12-31T17:07:31.131Z,6.50
2022-12-31T17:10:07.165Z,6.50
2022-12-31T17:13:00.627Z,6.50
2022-12-31T17:15:26.002Z,6.50
2022-12-31T17:17:57.203Z,6.50
2022-12-31T17:20:29.761Z,6.50
2022-12-31T17:23:05.506Z,6.50
2022-12-31T17:25:34.302Z,6.50
2022-12-31T17:28:02.336Z,6.50
2022-12-31T17:30:39.862Z,6.50
2022-12-31T17:33:12.501Z,6.40
2022-12-31T17:35:43.873Z,6.50
2022-12-31T17:38:22.564Z,6.40
2022-12-31T17:40:53.574Z,6.50
2022-12-31T17:43:23.022Z,6.50
2022-12-31T17:45:54.435Z,6.40
2022-12-31T17:48:24.710Z,6.40
2022-12-31T17:50:53.707Z,6.40
2022-12-31T17:53:21.212Z,6.40
2022-12-31T17:55:50.555Z,6.50
2022-12-31T17:58:29.801Z,6.40
2022-12-31T18:00:58.009Z,6.40
2022-12-31T18:03:25.042Z,6.50
2022-12-31T18:05:52.074Z,6.40
2022-12-31T18:08:18.941Z,6.40
2022-12-31T18:10:46.021Z,6.40
2022-12-31T18:13:20.051Z,6.40
2022-12-31T18:15:47.013Z,6.40
2022-12-31T18:18:26.170Z,6.50
2022-12-31T18:20:59.368Z,6.50
2022-12-31T18:23:33.134Z,6.50
2022-12-31T18:25:59.878Z,6.50
2022-12-31T18:28:26.615Z,6.50
2022-12-31T18:30:53.446Z,6.60
2022-12-31T18:33:23.808Z,6.60
2022-12-31T18:36:08.676Z,6.70
2022-12-31T18:38:36.562Z,6.70
2022-12-31T18:41:04.218Z,6.70
2022-12-31T18:43:31.190Z,6.70
2022-12-31T18:45:58.239Z,6.70
2022-12-31T18:48:25.189Z,6.70
2022-12-31T18:50:52.034Z,6.70
2022-12-31T18:53:21.867Z,6.70
2022-12-31T18:55:54.860Z,6.70
2022-12-31T18:58:22.231Z,6.70
2022-12-31T19:00:49.538Z,6.70
2022-12-31T19:03:19.305Z,6.70
2022-12-31T19:05:49.723Z,6.70
2022-12-31T19:08:21.666Z,6.70
2022-12-31T19:10:49.941Z,6.70
2022-12-31T19:13:18.372Z,6.70
2022-12-31T19:15:52.960Z,6.70
2022-12-31T19:18:19.933Z,6.70
2022-12-31T19:20:46.957Z,6.70
2022-12-31T19:23:16.507Z,6.80
2022-12-31T19:25:43.885Z,6.70
2022-12-31T19:28:27.161Z,6.70
2022-12-31T19:30:54.557Z,6.80
2022-12-31T19:33:21.563Z,6.80
2022-12-31T19:35:48.665Z,6.80
2022-12-31T19:38:24.631Z,6.90
2022-12-31T19:40:52.392Z,6.90
2022-12-31T19:43:20.945Z,6.90
2022-12-31T19:45:49.046Z,7.00
2022-12-31T19:48:20.049Z,7.00
2022-12-31T19:50:52.061Z,7.10
2022-12-31T19:53:26.109Z,7.20
2022-12-31T19:55:53.567Z,7.10
2022-12-31T19:58:25.745Z,7.20
2022-12-31T20:00:58.188Z,7.20
2022-12-31T20:03:28.613Z,7.30
2022-12-31T20:06:04.214Z,7.20
2022-12-31T20:08:31.201Z,7.30
2022-12-31T20:10:58.977Z,7.30
2022-12-31T20:13:28.608Z,7.40
2022-12-31T20:15:55.386Z,7.30
2022-12-31T20:18:23.259Z,7.40
2022-12-31T20:20:55.567Z,7.40
2022-12-31T20:23:22.901Z,7.40
2022-12-31T20:25:59.904Z,7.40
2022-12-31T20:28:27.298Z,7.40
2022-12-31T20:30:54.499Z,7.40
2022-12-31T20:33:21.506Z,7.40
2022-12-31T20:35:48.429Z,7.30
2022-12-31T20:38:15.558Z,7.40
2022-12-31T20:40:46.708Z,7.30
2022-12-31T20:43:14.204Z,7.40
2022-12-31T20:45:41.769Z,7.30
2022-12-31T20:48:08.778Z,7.40
2022-12-31T20:50:35.701Z,7.40
2022-12-31T20:53:02.581Z,7.40
2022-12-31T20:55:30.871Z,7.40
2022-12-31T20:57:57.760Z,7.40
2022-12-31T21:00:24.546Z,7.40
2022-12-31T21:02:58.993Z,7.50
2022-12-31T21:05:33.741Z,7.50
2022-12-31T21:08:00.718Z,7.50
2022-12-31T21:10:27.542Z,7.50
2022-12-31T21:12:54.302Z,7.50
2022-12-31T21:15:21.806Z,7.40
2022-12-31T21:17:48.638Z,7.40
2022-12-31T21:20:15.500Z,7.50
2022-12-31T21:22:42.428Z,7.50
2022-12-31T21:25:10.470Z,7.50
2022-12-31T21:27:37.261Z,7.50
2022-12-31T21:30:20.384Z,7.60
2022-12-31T21:32:47.680Z,7.50
2022-12-31T21:35:42.201Z,7.60
2022-12-31T21:38:02.534Z,7.60
2022-12-31T21:40:30.354Z,7.60
2022-12-31T21:42:57.531Z,7.60
2022-12-31T21:45:24.446Z,7.60
2022-12-31T21:48:09.890Z,7.60
2022-12-31T21:50:36.718Z,7.70
2022-12-31T21:53:03.501Z,7.70
2022-12-31T21:55:49.631Z,7.70
2022-12-31T21:58:31.967Z,7.70
2022-12-31T22:01:18.905Z,7.80
2022-12-31T22:03:45.967Z,7.80
2022-12-31T22:06:20.583Z,7.80
2022-12-31T22:08:51.217Z,7.80
2022-12-31T22:11:20.847Z,7.90
2022-12-31T22:13:49.017Z,7.90
2022-12-31T22:16:17.166Z,7.90
2022-12-31T22:18:44.477Z,7.90
2022-12-31T22:21:18.811Z,7.90
2022-12-31T22:23:48.836Z,7.90
2022-12-31T22:26:17.894Z,7.90
2022-12-31T22:28:46.016Z,7.90
2022-12-31T22:31:15.110Z,8.00
2022-12-31T22:33:43.212Z,8.00
2022-12-31T22:36:21.503Z,8.00
2022-12-31T22:38:49.527Z,8.10
2022-12-31T22:41:19.221Z,8.10
2022-12-31T22:43:48.535Z,8.10
2022-12-31T22:46:26.981Z,8.10
2022-12-31T22:48:57.327Z,8.10
2022-12-31T22:51:24.120Z,8.10
2022-12-31T22:53:50.878Z,8.10
2022-12-31T22:56:19.104Z,8.10
2022-12-31T22:58:46.137Z,8.00
2022-12-31T23:01:19.417Z,8.00
2022-12-31T23:03:48.111Z,8.00
2022-12-31T23:06:15.886Z,8.00
2022-12-31T23:09:02.999Z,8.10
2022-12-31T23:11:30.293Z,8.10
2022-12-31T23:14:16.219Z,8.00
2022-12-31T23:17:29.413Z,8.10
2022-12-31T23:20:07.255Z,8.10
2022-12-31T23:22:52.741Z,8.10
2022-12-31T23:25:19.774Z,8.10
2022-12-31T23:27:46.488Z,8.20
2022-12-31T23:30:13.441Z,8.20
2022-12-31T23:32:40.270Z,8.30
2022-12-31T23:35:10.067Z,8.20
2022-12-31T23:37:37.222Z,8.20
2022-12-31T23:40:04.628Z,8.20
2022-12-31T23:42:31.578Z,8.10
2022-12-31T23:44:58.353Z,8.10
2022-12-31T23:47:25.176Z,8.10
2022-12-31T23:49:51.953Z,8.20
2022-12-31T23:52:18.702Z,8.20
2022-12-31T23:54:45.512Z,8.20
2022-12-31T23:57:12.288Z,8.20
2022-12-31T23:59:39.131Z,8.20
